createdAt,value
2022-11-09T00:01:04.574Z,10.05
2022-11-09T00:03:32.073Z,9.94
2022-11-09T00:06:00.996Z,9.96
2022-11-09T00:08:29.046Z,10.07
2022-11-09T00:11:07.242Z,10.02
2022-11-09T00:13:40.133Z,10.09
2022-11-09T00:16:14.239Z,10.08
2022-11-09T00:18:47.451Z,10.01
2022-11-09T00:21:19.390Z,10.02
2022-11-09T00:23:46.897Z,9.96
2022-11-09T00:26:16.989Z,10.07
2022-11-09T00:28:44.543Z,10.07
2022-11-09T00:31:16.520Z,9.90
2022-11-09T00:33:43.820Z,9.95
2022-11-09T00:36:13.259Z,9.97
2022-11-09T00:38:41.296Z,9.90
2022-11-09T00:41:11.621Z,9.97
2022-11-09T00:43:38.904Z,9.87
2022-11-09T00:46:06.452Z,9.90
2022-11-09T00:48:35.001Z,9.82
2022-11-09T00:51:02.663Z,9.88
2022-11-09T00:53:31.467Z,9.93
2022-11-09T00:56:17.691Z,9.99
2022-11-09T00:58:44.899Z,9.95
2022-11-09T01:01:16.229Z,9.92
2022-11-09T01:03:45.683Z,10.03
2022-11-09T01:06:17.884Z,10.06
2022-11-09T01:08:46.335Z,10.02
2022-11-09T01:11:14.513Z,9.95
2022-11-09T01:13:41.837Z,9.99
2022-11-09T01:16:20.700Z,10.01
2022-11-09T01:18:48.621Z,10.16
2022-11-09T01:21:16.414Z,10.08
2022-11-09T01:23:44.066Z,10.02
2022-11-09T01:26:14.613Z,10.06
2022-11-09T01:28:42.662Z,10.07
2022-11-09T01:31:18.506Z,10.05
2022-11-09T01:33:46.778Z,10.07
2022-11-09T01:36:21.216Z,10.21
2022-11-09T01:38:49.380Z,10.11
2022-11-09T01:41:25.891Z,10.08
2022-11-09T01:44:22.387Z,10.10
2022-11-09T01:47:22.031Z,10.03
2022-11-09T01:49:59.616Z,9.93
2022-11-09T01:52:40.572Z,9.88
2022-11-09T01:55:23.216Z,9.81
2022-11-09T01:58:00.654Z,9.77
2022-11-09T02:00:28.981Z,9.67
2022-11-09T02:03:37.905Z,9.67
2022-11-09T02:06:10.119Z,9.66
2022-11-09T02:08:38.506Z,9.75
2022-11-09T02:11:12.328Z,9.63
2022-11-09T02:13:51.630Z,9.55
2022-11-09T02:16:19.521Z,9.55
2022-11-09T02:19:01.030Z,9.61
2022-11-09T02:21:32.242Z,9.55
2022-11-09T02:24:00.782Z,9.52
2022-11-09T02:26:48.028Z,9.44
2022-11-09T02:29:23.668Z,9.46
2022-11-09T02:31:58.899Z,9.46
2022-11-09T02:34:26.696Z,9.51
2022-11-09T02:36:54.666Z,9.46
2022-11-09T02:39:26.585Z,9.45
2022-11-09T02:42:19.947Z,9.47
2022-11-09T02:44:54.983Z,9.52
2022-11-09T02:47:22.398Z,9.58
2022-11-09T02:49:50.323Z,9.53
2022-11-09T02:52:19.161Z,9.53
2022-11-09T02:54:46.630Z,9.46
2022-11-09T02:57:13.817Z,9.54
2022-11-09T02:59:41.366Z,9.53
2022-11-09T03:02:08.685Z,9.58
2022-11-09T03:04:36.196Z,9.61
2022-11-09T03:07:03.418Z,9.63
2022-11-09T03:09:30.983Z,9.56
2022-11-09T03:11:58.126Z,9.53
2022-11-09T03:14:25.600Z,9.55
2022-11-09T03:16:52.822Z,9.55
2022-11-09T03:19:20.260Z,9.50
2022-11-09T03:21:47.460Z,9.51
2022-11-09T03:24:14.994Z,9.40
2022-11-09T03:26:42.141Z,9.30
2022-11-09T03:29:09.635Z,9.27
2022-11-09T03:31:36.793Z,9.23
2022-11-09T03:34:04.293Z,9.25
2022-11-09T03:36:31.509Z,9.29
2022-11-09T03:38:59.007Z,9.29
2022-11-09T03:41:26.153Z,9.23
2022-11-09T03:43:53.592Z,9.25
2022-11-09T03:46:20.778Z,9.24
2022-11-09T03:48:48.290Z,9.19
2022-11-09T03:51:15.521Z,9.17
2022-11-09T03:53:42.975Z,9.12
2022-11-09T03:56:10.179Z,9.11
2022-11-09T03:58:37.594Z,9.08
2022-11-09T04:01:04.763Z,9.07
2022-11-09T04:03:32.352Z,9.05
2022-11-09T04:06:00.193Z,9.05
2022-11-09T04:08:27.672Z,9.09
2022-11-09T04:10:55.244Z,9.11
2022-11-09T04:13:23.107Z,9.06
2022-11-09T04:15:50.377Z,9.10
2022-11-09T04:18:18.073Z,9.09
2022-11-09T04:20:45.306Z,9.03
2022-11-09T04:23:14.141Z,9.00
2022-11-09T04:25:42.325Z,9.00
2022-11-09T04:28:12.912Z,8.94
2022-11-09T04:30:40.675Z,9.05
2022-11-09T04:33:10.088Z,8.99
2022-11-09T04:35:37.315Z,8.89
2022-11-09T04:38:08.527Z,8.89
2022-11-09T04:40:36.797Z,8.89
2022-11-09T04:43:07.126Z,8.89
2022-11-09T04:45:35.777Z,8.90
2022-11-09T04:48:08.056Z,8.94
2022-11-09T04:50:35.641Z,8.97
2022-11-09T04:53:15.565Z,8.89
2022-11-09T04:55:43.377Z,8.89
2022-11-09T04:58:11.429Z,8.92
2022-11-09T05:00:39.196Z,8.96
2022-11-09T05:03:08.121Z,8.94
2022-11-09T05:05:37.861Z,8.95
2022-11-09T05:08:06.615Z,9.01
2022-11-09T05:10:34.933Z,9.04
2022-11-09T05:13:06.413Z,9.00
2022-11-09T05:15:35.497Z,9.06
2022-11-09T05:18:05.267Z,9.06
2022-11-09T05:20:33.161Z,9.10
2022-11-09T05:23:19.895Z,9.09
2022-11-09T05:25:47.908Z,9.10
2022-11-09T05:28:15.473Z,9.15
2022-11-09T05:30:42.696Z,9.21
2022-11-09T05:33:10.210Z,9.16
2022-11-09T05:35:37.459Z,9.16
2022-11-09T05:38:05.113Z,9.22
2022-11-09T05:40:33.544Z,9.16
2022-11-09T05:43:01.042Z,9.17
2022-11-09T05:45:44.149Z,9.18
2022-11-09T05:48:14.600Z,9.23
2022-11-09T05:50:42.883Z,9.23
2022-11-09T05:53:12.530Z,9.23
2022-11-09T05:55:40.158Z,9.32
2022-11-09T05:58:08.999Z,9.31
2022-11-09T06:00:36.908Z,9.41
2022-11-09T06:03:07.647Z,9.37
2022-11-09T06:05:36.619Z,9.40
2022-11-09T06:08:14.817Z,9.41
2022-11-09T06:10:43.575Z,9.52
2022-11-09T06:13:11.516Z,9.63
2022-11-09T06:15:38.875Z,9.72
2022-11-09T06:18:06.445Z,9.74
2022-11-09T06:20:33.724Z,9.80
2022-11-09T06:23:04.322Z,9.87
2022-11-09T06:25:33.473Z,9.89
2022-11-09T06:28:01.876Z,10.06
2022-11-09T06:30:29.122Z,10.17
2022-11-09T06:33:00.948Z,10.23
2022-11-09T06:35:28.579Z,10.21
2022-11-09T06:38:00.835Z,10.23
2022-11-09T06:40:28.957Z,10.35
2022-11-09T06:43:00.964Z,10.55
2022-11-09T06:45:30.275Z,10.58
2022-11-09T06:48:00.577Z,10.51
2022-11-09T06:50:31.353Z,10.68
2022-11-09T06:53:02.354Z,10.78
2022-11-09T06:55:31.497Z,10.90
2022-11-09T06:57:59.860Z,10.96
2022-11-09T07:00:28.446Z,11.27
2022-11-09T07:02:55.999Z,11.41
2022-11-09T07:05:24.406Z,11.40
2022-11-09T07:07:52.058Z,11.50
2022-11-09T07:10:19.777Z,11.56
2022-11-09T07:12:53.311Z,11.76
2022-11-09T07:15:20.564Z,11.73
2022-11-09T07:17:48.015Z,12.03
2022-11-09T07:20:15.850Z,11.90
2022-11-09T07:22:43.574Z,12.11
2022-11-09T07:25:13.130Z,12.25
2022-11-09T07:27:40.921Z,12.14
2022-11-09T07:30:09.480Z,12.47
2022-11-09T07:33:08.777Z,12.55
2022-11-09T07:35:27.210Z,12.48
2022-11-09T07:37:55.082Z,12.63
2022-11-09T07:40:22.373Z,12.63
2022-11-09T07:42:49.895Z,13.11
2022-11-09T07:45:17.187Z,13.24
2022-11-09T07:47:44.749Z,13.28
2022-11-09T07:50:11.896Z,13.38
2022-11-09T07:52:39.370Z,13.34
2022-11-09T07:55:07.191Z,13.60
2022-11-09T07:57:34.694Z,13.96
2022-11-09T08:00:01.987Z,14.08
2022-11-09T08:02:29.470Z,14.48
2022-11-09T08:04:56.704Z,14.93
2022-11-09T08:07:24.222Z,15.16
2022-11-09T08:09:51.419Z,15.60
2022-11-09T08:12:18.862Z,15.90
2022-11-09T08:14:46.014Z,16.81
2022-11-09T08:17:13.462Z,17.99
2022-11-09T08:19:40.662Z,18.62
2022-11-09T08:22:08.246Z,19.69
2022-11-09T08:24:35.449Z,20.81
2022-11-09T08:27:02.855Z,20.03
2022-11-09T08:29:30.013Z,21.00
2022-11-09T08:31:57.793Z,21.67
2022-11-09T08:34:25.020Z,21.38
2022-11-09T08:36:52.528Z,20.63
2022-11-09T08:39:23.162Z,20.35
2022-11-09T08:41:50.773Z,19.85
2022-11-09T08:44:18.262Z,20.48
2022-11-09T08:46:45.756Z,20.57
2022-11-09T08:49:13.450Z,19.97
2022-11-09T08:51:40.856Z,19.99
2022-11-09T08:54:09.123Z,19.35
2022-11-09T08:56:36.645Z,18.97
2022-11-09T08:59:03.856Z,18.94
2022-11-09T09:01:31.337Z,18.45
2022-11-09T09:03:58.526Z,18.10
2022-11-09T09:06:30.915Z,17.94
2022-11-09T09:08:58.733Z,18.05
2022-11-09T09:11:26.335Z,17.92
2022-11-09T09:13:53.494Z,17.76
2022-11-09T09:16:20.950Z,17.65
2022-11-09T09:18:49.278Z,17.71
2022-11-09T09:21:16.941Z,18.00
2022-11-09T09:23:44.264Z,18.70
2022-11-09T09:26:11.695Z,18.44
2022-11-09T09:28:39.095Z,18.64
2022-11-09T09:31:07.073Z,18.72
2022-11-09T09:33:34.430Z,18.98
2022-11-09T09:36:02.589Z,19.60
2022-11-09T09:38:30.522Z,20.02
2022-11-09T09:41:05.816Z,20.45
2022-11-09T09:43:48.891Z,21.82
2022-11-09T09:46:37.797Z,23.71
2022-11-09T09:49:17.341Z,26.34
2022-11-09T09:52:04.901Z,27.13
2022-11-09T09:54:41.164Z,28.53
2022-11-09T09:57:19.785Z,29.14
2022-11-09T09:59:58.192Z,29.32
2022-11-09T10:02:35.575Z,29.37
2022-11-09T10:05:13.107Z,30.10
2022-11-09T10:07:58.898Z,29.66
2022-11-09T10:10:48.356Z,30.49
2022-11-09T10:13:47.431Z,31.86
2022-11-09T10:16:54.596Z,32.32
2022-11-09T10:20:15.893Z,32.24
2022-11-09T10:23:07.159Z,34.19
2022-11-09T10:28:47.686Z,35.08
2022-11-09T10:31:22.195Z,34.09
2022-11-09T10:34:16.462Z,34.20
2022-11-09T10:37:13.582Z,33.97
2022-11-09T10:39:52.640Z,34.81
2022-11-09T10:42:20.109Z,33.82
2022-11-09T10:44:47.427Z,34.35
2022-11-09T10:47:17.738Z,34.24
2022-11-09T10:49:46.145Z,34.64
2022-11-09T10:52:47.041Z,35.49
2022-11-09T10:55:28.667Z,34.17
2022-11-09T10:58:24.537Z,35.24
2022-11-09T11:01:03.074Z,35.07
2022-11-09T11:03:38.995Z,33.87
2022-11-09T11:06:15.050Z,34.01
2022-11-09T11:08:46.847Z,34.69
2022-11-09T11:11:33.859Z,34.98
2022-11-09T11:14:34.522Z,35.45
2022-11-09T11:17:02.257Z,34.91
2022-11-09T11:19:32.416Z,35.55
2022-11-09T11:22:14.453Z,34.89
2022-11-09T11:24:53.596Z,35.01
2022-11-09T11:27:48.880Z,33.90
2022-11-09T11:30:28.563Z,35.33
2022-11-09T11:32:57.175Z,35.53
2022-11-09T11:35:39.927Z,36.31
2022-11-09T11:38:28.050Z,36.46
2022-11-09T11:41:35.971Z,35.57
2022-11-09T11:44:30.327Z,36.77
2022-11-09T11:47:28.452Z,37.41
2022-11-09T11:50:16.361Z,37.50
2022-11-09T11:53:09.224Z,37.32
2022-11-09T11:56:17.329Z,36.92
2022-11-09T11:59:20.161Z,37.03
2022-11-09T12:02:36.392Z,37.03
2022-11-09T12:05:28.541Z,35.27
2022-11-09T12:08:15.961Z,33.37
2022-11-09T12:11:29.821Z,32.19
2022-11-09T12:14:54.151Z,31.70
2022-11-09T12:18:19.184Z,29.88
2022-11-09T12:21:14.145Z,28.89
2022-11-09T12:24:18.563Z,31.61
2022-11-09T12:27:33.162Z,33.33
2022-11-09T12:30:14.099Z,33.01
2022-11-09T12:33:09.871Z,33.15
2022-11-09T12:35:57.703Z,33.64
2022-11-09T12:38:33.745Z,34.05
2022-11-09T12:41:24.753Z,34.83
2022-11-09T12:44:18.919Z,32.78
2022-11-09T12:47:07.055Z,32.78
2022-11-09T12:49:38.714Z,32.87
2022-11-09T12:52:15.019Z,32.96
2022-11-09T12:54:50.116Z,33.64
2022-11-09T12:57:30.453Z,32.98
2022-11-09T13:00:00.843Z,32.48
2022-11-09T13:02:51.746Z,30.16
2022-11-09T13:05:39.316Z,29.28
2022-11-09T13:08:23.949Z,28.38
2022-11-09T13:11:25.952Z,27.59
2022-11-09T13:14:22.255Z,27.11
2022-11-09T13:16:57.646Z,26.56
2022-11-09T13:19:40.130Z,25.72
2022-11-09T13:22:16.078Z,25.58
2022-11-09T13:24:57.271Z,26.64
2022-11-09T13:27:33.341Z,26.86
2022-11-09T13:30:02.454Z,26.71
2022-11-09T13:32:33.774Z,27.86
2022-11-09T13:35:04.003Z,27.27
2022-11-09T13:37:41.333Z,27.07
2022-11-09T13:40:30.634Z,26.80
2022-11-09T13:43:13.978Z,26.70
2022-11-09T13:45:53.268Z,26.40
2022-11-09T13:48:43.072Z,26.09
2022-11-09T13:51:36.159Z,24.82
2022-11-09T13:54:37.682Z,23.55
2022-11-09T13:57:07.126Z,22.47
2022-11-09T13:59:49.316Z,21.56
2022-11-09T14:02:22.744Z,21.04
2022-11-09T14:04:50.028Z,20.62
2022-11-09T14:07:34.060Z,20.21
2022-11-09T14:10:21.482Z,19.88
2022-11-09T14:13:13.917Z,19.71
2022-11-09T14:15:53.374Z,19.78
2022-11-09T14:19:03.689Z,19.37
2022-11-09T14:21:48.414Z,19.05
2022-11-09T14:24:29.714Z,18.74
2022-11-09T14:27:13.371Z,18.59
2022-11-09T14:29:53.317Z,18.67
2022-11-09T14:32:36.978Z,19.24
2022-11-09T14:35:34.132Z,19.16
2022-11-09T14:38:18.872Z,18.93
2022-11-09T14:40:49.821Z,18.51
2022-11-09T14:43:30.020Z,17.99
2022-11-09T14:46:03.948Z,17.74
2022-11-09T14:48:33.946Z,17.36
2022-11-09T14:51:06.727Z,17.11
2022-11-09T14:53:37.955Z,16.83
2022-11-09T14:56:09.650Z,16.58
2022-11-09T14:58:44.618Z,16.37
2022-11-09T15:01:20.005Z,16.20
2022-11-09T15:04:21.884Z,15.82
2022-11-09T15:06:56.858Z,15.61
2022-11-09T15:09:43.900Z,15.45
2022-11-09T15:12:20.968Z,15.22
2022-11-09T15:14:58.526Z,15.07
2022-11-09T15:17:33.276Z,14.85
2022-11-09T15:20:31.116Z,14.63
2022-11-09T15:23:20.960Z,14.50
2022-11-09T15:25:48.481Z,14.42
2022-11-09T15:28:29.064Z,14.24
2022-11-09T15:30:56.858Z,14.13
2022-11-09T15:33:58.055Z,13.95
2022-11-09T15:36:36.340Z,13.99
2022-11-09T15:39:17.558Z,13.78
2022-11-09T15:41:44.767Z,13.76
2022-11-09T15:44:14.527Z,13.69
2022-11-09T15:46:52.488Z,13.62
2022-11-09T15:49:25.633Z,13.48
2022-11-09T15:51:53.709Z,13.40
2022-11-09T15:54:24.174Z,13.43
2022-11-09T15:56:52.352Z,13.44
2022-11-09T15:59:26.222Z,13.42
2022-11-09T16:01:54.112Z,13.45
2022-11-09T16:04:21.349Z,13.20
2022-11-09T16:06:48.573Z,13.30
2022-11-09T16:09:16.165Z,13.11
2022-11-09T16:11:43.477Z,13.10
2022-11-09T16:14:10.766Z,13.14
2022-11-09T16:16:38.335Z,13.04
2022-11-09T16:19:05.718Z,12.96
2022-11-09T16:21:32.912Z,12.90
2022-11-09T16:24:00.368Z,12.81
2022-11-09T16:26:27.573Z,12.73
2022-11-09T16:28:55.334Z,12.70
2022-11-09T16:31:48.281Z,12.66
2022-11-09T16:34:10.063Z,12.66
2022-11-09T16:36:43.009Z,12.49
2022-11-09T16:39:17.342Z,12.60
2022-11-09T16:41:50.251Z,12.62
2022-11-09T16:44:23.957Z,12.54
2022-11-09T16:46:52.293Z,12.55
2022-11-09T16:49:19.587Z,12.38
2022-11-09T16:51:47.067Z,12.28
2022-11-09T16:54:14.270Z,12.25
2022-11-09T16:56:41.502Z,12.15
2022-11-09T16:59:09.015Z,12.24
2022-11-09T17:01:36.248Z,12.07
2022-11-09T17:04:03.505Z,12.21
2022-11-09T17:06:35.388Z,11.98
2022-11-09T17:09:02.955Z,11.99
2022-11-09T17:11:30.231Z,12.08
2022-11-09T17:13:59.751Z,11.94
2022-11-09T17:16:27.787Z,11.77
2022-11-09T17:18:57.026Z,11.84
2022-11-09T17:21:27.392Z,11.72
2022-11-09T17:23:57.460Z,11.60
2022-11-09T17:26:25.908Z,11.65
2022-11-09T17:28:53.668Z,11.55
2022-11-09T17:31:23.942Z,11.64
2022-11-09T17:33:51.188Z,11.60
2022-11-09T17:36:35.192Z,11.51
2022-11-09T17:39:07.104Z,11.46
2022-11-09T17:41:38.692Z,11.50
2022-11-09T17:44:08.779Z,11.42
2022-11-09T17:46:36.349Z,11.43
2022-11-09T17:49:08.708Z,11.40
2022-11-09T17:51:37.650Z,11.32
2022-11-09T17:54:05.422Z,11.29
2022-11-09T17:56:34.187Z,11.35
2022-11-09T17:59:04.035Z,11.24
2022-11-09T18:01:33.166Z,11.19
2022-11-09T18:04:08.627Z,11.16
2022-11-09T18:06:36.188Z,11.14
2022-11-09T18:09:39.101Z,11.13
2022-11-09T18:11:52.322Z,10.96
2022-11-09T18:14:19.915Z,10.93
2022-11-09T18:16:47.460Z,10.89
2022-11-09T18:19:14.715Z,10.77
2022-11-09T18:21:44.264Z,10.70
2022-11-09T18:24:11.785Z,10.83
2022-11-09T18:26:39.141Z,10.64
2022-11-09T18:29:06.417Z,10.62
2022-11-09T18:31:34.042Z,10.61
2022-11-09T18:34:01.357Z,10.55
2022-11-09T18:36:28.825Z,10.67
2022-11-09T18:38:56.359Z,10.62
2022-11-09T18:41:26.171Z,10.52
2022-11-09T18:43:54.236Z,10.58
2022-11-09T18:46:22.475Z,10.43
2022-11-09T18:48:53.140Z,10.52
2022-11-09T18:51:21.025Z,10.39
2022-11-09T18:53:49.795Z,10.38
2022-11-09T18:56:23.516Z,10.39
2022-11-09T18:58:55.105Z,10.38
2022-11-09T19:01:25.137Z,10.40
2022-11-09T19:03:58.956Z,10.31
2022-11-09T19:06:28.336Z,10.38
2022-11-09T19:09:14.465Z,10.28
2022-11-09T19:11:42.308Z,10.29
2022-11-09T19:14:11.601Z,10.23
2022-11-09T19:16:38.896Z,10.19
2022-11-09T19:19:06.451Z,10.29
2022-11-09T19:21:38.923Z,10.23
2022-11-09T19:24:07.968Z,10.20
2022-11-09T19:26:35.974Z,10.17
2022-11-09T19:29:04.167Z,10.12
2022-11-09T19:31:31.806Z,10.17
2022-11-09T19:33:59.646Z,10.10
2022-11-09T19:36:31.387Z,10.17
2022-11-09T19:39:01.242Z,10.08
2022-11-09T19:41:29.461Z,10.05
2022-11-09T19:43:58.845Z,9.96
2022-11-09T19:46:31.127Z,10.06
2022-11-09T19:48:58.925Z,10.05
2022-11-09T19:51:29.460Z,9.94
2022-11-09T19:53:59.123Z,10.02
2022-11-09T19:56:30.165Z,9.91
2022-11-09T19:59:01.146Z,9.94
2022-11-09T20:01:30.870Z,10.07
2022-11-09T20:04:00.974Z,10.08
2022-11-09T20:06:30.090Z,10.11
2022-11-09T20:09:00.643Z,10.15
2022-11-09T20:11:47.980Z,10.00
2022-11-09T20:14:15.685Z,10.01
2022-11-09T20:16:44.575Z,9.91
2022-11-09T20:19:14.287Z,9.95
2022-11-09T20:21:42.731Z,9.96
2022-11-09T20:24:12.431Z,10.03
2022-11-09T20:26:41.413Z,10.05
2022-11-09T20:29:08.730Z,9.91
2022-11-09T20:31:37.515Z,9.87
2022-11-09T20:34:06.008Z,9.82
2022-11-09T20:36:34.839Z,9.79
2022-11-09T20:39:02.449Z,9.78
2022-11-09T20:41:31.441Z,9.73
2022-11-09T20:43:59.223Z,9.73
2022-11-09T20:46:28.001Z,9.73
2022-11-09T20:48:57.595Z,9.72
2022-11-09T20:51:25.468Z,9.74
2022-11-09T20:53:52.977Z,9.75
2022-11-09T20:56:21.703Z,9.74
2022-11-09T20:58:49.783Z,9.70
2022-11-09T21:01:21.805Z,9.75
2022-11-09T21:03:52.079Z,9.70
2022-11-09T21:06:21.671Z,9.70
2022-11-09T21:08:53.922Z,9.73
2022-11-09T21:11:23.912Z,9.66
2022-11-09T21:13:53.787Z,9.67
2022-11-09T21:16:23.215Z,9.84
2022-11-09T21:18:50.486Z,9.77
2022-11-09T21:21:23.533Z,9.81
2022-11-09T21:24:09.840Z,9.64
2022-11-09T21:26:55.745Z,9.72
2022-11-09T21:29:43.390Z,9.69
2022-11-09T21:32:12.322Z,9.71
2022-11-09T21:34:39.888Z,9.70
2022-11-09T21:37:07.877Z,9.68
2022-11-09T21:39:36.068Z,9.68
2022-11-09T21:42:04.881Z,9.70
2022-11-09T21:44:34.114Z,9.73
2022-11-09T21:47:02.716Z,9.77
2022-11-09T21:49:30.769Z,9.77
2022-11-09T21:52:00.325Z,9.81
2022-11-09T21:54:28.551Z,9.88
2022-11-09T21:56:56.880Z,9.82
2022-11-09T21:59:24.568Z,9.76
2022-11-09T22:01:52.273Z,9.78
2022-11-09T22:04:19.867Z,9.67
2022-11-09T22:06:47.097Z,9.80
2022-11-09T22:09:18.859Z,9.78
2022-11-09T22:12:05.164Z,9.77
2022-11-09T22:14:50.802Z,9.79
2022-11-09T22:17:18.307Z,9.80
2022-11-09T22:20:04.230Z,9.75
2022-11-09T22:22:33.668Z,9.75
2022-11-09T22:25:00.836Z,9.72
2022-11-09T22:27:32.269Z,9.71
2022-11-09T22:29:59.790Z,9.80
2022-11-09T22:32:27.057Z,9.74
2022-11-09T22:34:54.612Z,9.74
2022-11-09T22:37:21.932Z,9.73
2022-11-09T22:39:49.140Z,9.71
2022-11-09T22:42:16.573Z,9.76
2022-11-09T22:44:43.753Z,9.80
2022-11-09T22:47:10.920Z,9.80
2022-11-09T22:49:38.471Z,9.87
2022-11-09T22:52:05.693Z,9.85
2022-11-09T22:54:33.106Z,9.87
2022-11-09T22:57:00.521Z,9.81
2022-11-09T22:59:27.682Z,9.78
2022-11-09T23:01:54.938Z,9.83
2022-11-09T23:04:22.638Z,9.83
2022-11-09T23:06:49.790Z,9.87
2022-11-09T23:09:17.035Z,9.94
2022-11-09T23:11:44.613Z,9.88
2022-11-09T23:14:31.803Z,9.89
2022-11-09T23:16:59.289Z,9.90
2022-11-09T23:19:26.410Z,9.84
2022-11-09T23:21:53.560Z,9.94
2022-11-09T23:24:39.649Z,9.87
2022-11-09T23:27:06.784Z,9.88
2022-11-09T23:29:34.243Z,9.92
2022-11-09T23:32:01.459Z,9.87
2022-11-09T23:34:28.898Z,9.92
2022-11-09T23:36:56.064Z,9.88
2022-11-09T23:39:23.278Z,9.85
2022-11-09T23:41:50.774Z,9.85
2022-11-09T23:44:17.926Z,9.90
2022-11-09T23:46:45.066Z,9.83
2022-11-09T23:49:12.457Z,9.90
2022-11-09T23:51:39.574Z,9.90
2022-11-09T23:54:06.904Z,9.89
2022-11-09T23:56:34.341Z,9.89
2022-11-09T23:59:01.491Z,9.87
